マナーマ の空港の天気 - METARとTAF

バーレーン国際空港 ( OBBI / BAH ) - バーレーン マナーマ
飛行場実況気象(Metar)
観測時間08/07 01:30 AST (08/06 22:30 UTC)
風向・風速西 3m/s
視程10km以上
天気現象
なし
気温35℃
湿度53%
気圧995hPa
METAROBBI 062230Z 28006KT CAVOK 35/24 Q0995 NOSIG
過去の天気等 Google飛行場航空写真 Wunderground天気予報

過去48時間のMETAR

飛行場予報(TAF)
発表時間: 8/06 20:00 AST (8/06 17:00 UTC)
予報対象時間: 6日21時 AST ~ 8日3時 AST
風向・風速北西 5m/s
視程10km以上
なし
7日7時 AST ~ 7日9時 AST に徐々に
風向・風速北北西 8m/s 瞬間風速 13m/s
7日18時 AST ~ 7日20時 AST に徐々に
風向・風速北西 4m/s
TAF OBBI 061700Z 0618/0800 32010KT CAVOK
BECMG 0704/0706 33015G25KT
BECMG 0715/0717 31008KT